Time;durP1;ratioP1;P1;durP2;ratioP2;P2;SDS_P1;SDS_P2;PMS_P1;PMS_P2;Temp;Humidity;BMP_temperature;BMP_pressure;BME280_temperature;BME280_humidity;BME280_pressure;Samples;Min_cycle;Max_cycle;Signal;HPM_P1;HPM_P2
2023/03/19 00:01:19;;;;;;;17.80;7.88;;;;;;;;;;4979867;28;20033;-64
2023/03/19 00:03:45;;;;;;;15.37;7.60;;;;;;;;;;4973339;28;20027;-67
2023/03/19 00:06:10;;;;;;;16.92;7.28;;;;;;;;;;4969634;28;20054;-66
2023/03/19 00:08:36;;;;;;;16.73;7.22;;;;;;;;;;4970583;28;20031;-62
2023/03/19 00:11:05;;;;;;;16.27;7.13;;;;;;;;;;4970835;28;20031;-66
2023/03/19 00:13:30;;;;;;;16.55;6.85;;;;;;;;;;4971121;28;20491;-66
2023/03/19 00:15:55;;;;;;;17.67;8.13;;;;;;;;;;4969690;28;20023;-66
2023/03/19 00:18:20;;;;;;;18.17;7.60;;;;;;;;;;4971023;28;20027;-65
2023/03/19 00:20:45;;;;;;;16.90;7.60;;;;;;;;;;4970851;28;20026;-67
2023/03/19 00:23:11;;;;;;;16.52;7.15;;;;;;;;;;4970121;28;20557;-66
2023/03/19 00:25:36;;;;;;;15.77;7.70;;;;;;;;;;4969537;28;20023;-68
2023/03/19 00:28:01;;;;;;;15.90;6.45;;;;;;;;;;4970696;28;20023;-66
2023/03/19 00:30:26;;;;;;;15.53;7.20;;;;;;;;;;4970401;28;20534;-66
2023/03/19 00:32:51;;;;;;;17.03;7.40;;;;;;;;;;4970412;28;20033;-67
2023/03/19 00:35:16;;;;;;;15.45;7.85;;;;;;;;;;4970099;28;20077;-65
2023/03/19 00:37:42;;;;;;;16.97;7.70;;;;;;;;;;4970559;28;20410;-67
2023/03/19 00:40:09;;;;;;;17.97;8.00;;;;;;;;;;4974089;28;20096;-67
2023/03/19 00:42:34;;;;;;;16.45;7.35;;;;;;;;;;4973022;28;20038;-67
2023/03/19 00:44:59;;;;;;;17.43;7.50;;;;;;;;;;4971609;28;20031;-67
2023/03/19 00:47:25;;;;;;;15.55;7.15;;;;;;;;;;4972083;28;20027;-63
2023/03/19 00:49:51;;;;;;;15.88;7.75;;;;;;;;;;4973155;28;20105;-66
2023/03/19 00:52:16;;;;;;;15.70;7.47;;;;;;;;;;4970576;28;20166;-64
2023/03/19 00:54:41;;;;;;;15.93;7.20;;;;;;;;;;4968256;28;20065;-65
2023/03/19 00:57:06;;;;;;;14.73;7.33;;;;;;;;;;4969821;28;20023;-66
2023/03/19 00:59:31;;;;;;;17.00;8.10;;;;;;;;;;4968909;28;20085;-68
2023/03/19 01:01:57;;;;;;;17.17;8.17;;;;;;;;;;4961641;28;20037;-66
2023/03/19 01:04:22;;;;;;;18.03;7.53;;;;;;;;;;4968764;28;20538;-65
2023/03/19 01:06:47;;;;;;;14.57;7.40;;;;;;;;;;4969265;28;20462;-65
2023/03/19 01:09:12;;;;;;;17.70;7.63;;;;;;;;;;4971772;28;20031;-66
2023/03/19 01:11:37;;;;;;;15.32;7.75;;;;;;;;;;4970554;28;20054;-64
2023/03/19 01:14:03;;;;;;;19.87;8.00;;;;;;;;;;4970511;28;20035;-66
2023/03/19 01:16:28;;;;;;;15.63;7.67;;;;;;;;;;4972496;28;20037;-66
2023/03/19 01:18:53;;;;;;;17.07;8.37;;;;;;;;;;4974241;28;20050;-69
2023/03/19 01:21:18;;;;;;;15.35;8.38;;;;;;;;;;4977075;28;20042;-67
2023/03/19 01:23:43;;;;;;;17.70;7.93;;;;;;;;;;4978391;28;20019;-66
2023/03/19 01:26:08;;;;;;;17.57;7.17;;;;;;;;;;4976731;28;20061;-65
2023/03/19 01:28:34;;;;;;;16.88;7.63;;;;;;;;;;4978951;28;20542;-65
2023/03/19 01:31:00;;;;;;;17.02;8.02;;;;;;;;;;4982807;28;20025;-67
2023/03/19 01:33:25;;;;;;;17.02;7.53;;;;;;;;;;4980808;28;20581;-65
2023/03/19 01:35:51;;;;;;;18.97;8.33;;;;;;;;;;4972810;28;20035;-66
2023/03/19 01:38:16;;;;;;;16.10;7.37;;;;;;;;;;4965546;28;20027;-66
2023/03/19 01:40:46;;;;;;;19.48;7.90;;;;;;;;;;4969964;28;20105;-65
2023/03/19 01:43:14;;;;;;;18.83;7.68;;;;;;;;;;4968744;28;20164;-66
2023/03/19 01:45:41;;;;;;;15.98;7.68;;;;;;;;;;4968197;28;20031;-66
2023/03/19 01:48:11;;;;;;;19.95;7.65;;;;;;;;;;4971865;28;20418;-67
2023/03/19 01:50:39;;;;;;;16.88;7.40;;;;;;;;;;4970983;28;20083;-64
2023/03/19 01:53:04;;;;;;;18.90;8.30;;;;;;;;;;4963408;28;20023;-64
2023/03/19 01:55:30;;;;;;;17.33;7.73;;;;;;;;;;4969698;28;20058;-65
2023/03/19 01:57:55;;;;;;;18.88;8.23;;;;;;;;;;4971439;28;20031;-64
2023/03/19 02:00:21;;;;;;;16.27;7.80;;;;;;;;;;4972785;28;20062;-65
2023/03/19 02:02:48;;;;;;;15.68;7.40;;;;;;;;;;4970202;28;20042;-66
2023/03/19 02:05:14;;;;;;;14.73;7.18;;;;;;;;;;4967003;28;20050;-66
2023/03/19 02:07:41;;;;;;;19.60;8.05;;;;;;;;;;4970416;28;20547;-65
2023/03/19 02:10:08;;;;;;;16.73;7.57;;;;;;;;;;4971396;28;20043;-65
2023/03/19 02:12:33;;;;;;;15.15;7.57;;;;;;;;;;4971320;28;20019;-65
2023/03/19 02:14:58;;;;;;;19.67;8.00;;;;;;;;;;4972271;28;20046;-65
2023/03/19 02:17:24;;;;;;;16.47;7.63;;;;;;;;;;4972000;28;20026;-65
2023/03/19 02:20:05;;;;;;;17.13;7.75;;;;;;;;;;4971656;28;20499;-66
2023/03/19 02:22:30;;;;;;;16.70;8.07;;;;;;;;;;4962824;28;20019;-65
2023/03/19 02:24:58;;;;;;;19.58;8.00;;;;;;;;;;4971040;28;20038;-65
2023/03/19 02:27:23;;;;;;;14.60;7.72;;;;;;;;;;4969982;28;20030;-64
2023/03/19 02:29:49;;;;;;;15.40;7.55;;;;;;;;;;4971390;28;20027;-64
2023/03/19 02:32:14;;;;;;;15.87;7.33;;;;;;;;;;4971189;28;20474;-66
2023/03/19 02:34:40;;;;;;;16.93;7.63;;;;;;;;;;4971045;28;20391;-65
2023/03/19 02:37:26;;;;;;;18.27;7.47;;;;;;;;;;4973864;28;20058;-67
2023/03/19 02:39:56;;;;;;;17.58;7.70;;;;;;;;;;4991948;28;20023;-67
2023/03/19 02:42:23;;;;;;;17.92;7.95;;;;;;;;;;4994749;28;20023;-66
2023/03/19 02:44:49;;;;;;;18.13;7.90;;;;;;;;;;4994012;28;20025;-64
2023/03/19 02:47:15;;;;;;;20.50;7.88;;;;;;;;;;4989757;28;20037;-66
2023/03/19 02:49:40;;;;;;;16.70;7.57;;;;;;;;;;4973622;28;20089;-66
2023/03/19 02:52:05;;;;;;;18.40;7.83;;;;;;;;;;4969792;28;20410;-67
2023/03/19 02:54:30;;;;;;;15.33;7.17;;;;;;;;;;4970392;28;20165;-67
2023/03/19 02:56:55;;;;;;;17.60;8.15;;;;;;;;;;4969952;28;20466;-66
2023/03/19 02:59:21;;;;;;;16.63;7.25;;;;;;;;;;4971533;28;20023;-67
2023/03/19 03:01:46;;;;;;;15.07;7.50;;;;;;;;;;4969989;28;20458;-66
2023/03/19 03:04:13;;;;;;;16.80;7.43;;;;;;;;;;4971266;28;20022;-66
2023/03/19 03:06:39;;;;;;;18.35;8.38;;;;;;;;;;4969894;28;20027;-66
2023/03/19 03:09:04;;;;;;;17.35;7.10;;;;;;;;;;4969351;28;20034;-64
2023/03/19 03:11:29;;;;;;;14.23;7.20;;;;;;;;;;4963927;28;20622;-67
2023/03/19 03:13:55;;;;;;;15.82;7.35;;;;;;;;;;4969763;28;20458;-65
2023/03/19 03:16:20;;;;;;;16.98;7.97;;;;;;;;;;4969691;28;20019;-66
2023/03/19 03:18:45;;;;;;;15.97;7.43;;;;;;;;;;4971234;28;20073;-66
2023/03/19 03:21:10;;;;;;;17.43;7.57;;;;;;;;;;4970048;28;20454;-67
2023/03/19 03:23:36;;;;;;;16.23;7.18;;;;;;;;;;4980087;28;20030;-67
2023/03/19 03:26:01;;;;;;;15.93;6.63;;;;;;;;;;4978727;28;20110;-66
2023/03/19 03:28:26;;;;;;;16.40;7.43;;;;;;;;;;4974826;28;20027;-67
2023/03/19 03:30:57;;;;;;;16.60;7.53;;;;;;;;;;4971407;28;20030;-66
2023/03/19 03:33:22;;;;;;;18.50;7.53;;;;;;;;;;4969397;28;20456;-68
2023/03/19 03:35:47;;;;;;;14.73;7.38;;;;;;;;;;4967408;28;20035;-68
2023/03/19 03:38:12;;;;;;;16.33;7.50;;;;;;;;;;4970971;28;20022;-66
2023/03/19 03:40:37;;;;;;;16.33;7.10;;;;;;;;;;4971380;28;20050;-67
2023/03/19 03:43:02;;;;;;;17.15;7.05;;;;;;;;;;4969822;28;20545;-66
2023/03/19 03:45:28;;;;;;;15.43;7.43;;;;;;;;;;4970571;28;20053;-65
2023/03/19 03:47:53;;;;;;;16.70;6.88;;;;;;;;;;4968999;28;20038;-68
2023/03/19 03:50:18;;;;;;;16.30;7.03;;;;;;;;;;4969323;28;20030;-67
2023/03/19 03:52:43;;;;;;;18.20;7.75;;;;;;;;;;4970015;28;20514;-66
2023/03/19 03:55:09;;;;;;;15.95;7.10;;;;;;;;;;4970629;28;20030;-65
2023/03/19 03:57:34;;;;;;;17.60;7.43;;;;;;;;;;4968701;28;20035;-66
2023/03/19 03:59:59;;;;;;;14.73;6.97;;;;;;;;;;4968815;28;20019;-67
2023/03/19 04:02:26;;;;;;;17.92;7.45;;;;;;;;;;4967842;28;20035;-67
2023/03/19 04:04:51;;;;;;;16.08;7.20;;;;;;;;;;4966026;28;20030;-66
2023/03/19 04:07:16;;;;;;;15.73;7.30;;;;;;;;;;4969234;28;20359;-67
2023/03/19 04:09:41;;;;;;;17.05;7.20;;;;;;;;;;4969535;28;20497;-65
2023/03/19 04:12:06;;;;;;;15.60;6.90;;;;;;;;;;4968183;28;20495;-66
2023/03/19 04:14:32;;;;;;;17.07;7.20;;;;;;;;;;4969390;28;20122;-65
2023/03/19 04:16:57;;;;;;;18.40;7.40;;;;;;;;;;4973733;28;20110;-64
2023/03/19 04:19:22;;;;;;;14.20;6.90;;;;;;;;;;4973456;28;20059;-66
2023/03/19 04:21:47;;;;;;;15.98;7.32;;;;;;;;;;4972425;28;20142;-66
2023/03/19 04:24:13;;;;;;;15.18;7.30;;;;;;;;;;4970284;28;20077;-65
2023/03/19 04:26:38;;;;;;;15.35;7.32;;;;;;;;;;4972087;28;20027;-66
2023/03/19 04:29:04;;;;;;;16.17;7.30;;;;;;;;;;4971349;28;20044;-67
2023/03/19 04:31:29;;;;;;;15.13;7.07;;;;;;;;;;4972459;28;20752;-66
2023/03/19 04:33:54;;;;;;;14.87;7.03;;;;;;;;;;4973540;28;20035;-65
2023/03/19 04:36:19;;;;;;;15.43;7.65;;;;;;;;;;4972569;28;20022;-68
2023/03/19 04:38:45;;;;;;;16.30;6.70;;;;;;;;;;4973088;28;20030;-68
2023/03/19 04:41:10;;;;;;;18.47;7.77;;;;;;;;;;4972521;28;20035;-65
2023/03/19 04:43:35;;;;;;;14.40;6.57;;;;;;;;;;4973826;28;20030;-65
2023/03/19 04:46:01;;;;;;;16.13;7.03;;;;;;;;;;4972109;28;20069;-65
2023/03/19 04:48:26;;;;;;;15.23;6.72;;;;;;;;;;4972996;28;20041;-67
2023/03/19 04:50:52;;;;;;;13.90;7.00;;;;;;;;;;4971742;28;20535;-68
2023/03/19 04:53:19;;;;;;;16.95;7.40;;;;;;;;;;4973387;28;20406;-64
2023/03/19 04:55:44;;;;;;;14.50;6.95;;;;;;;;;;4971697;28;20023;-65
2023/03/19 04:58:10;;;;;;;14.60;6.37;;;;;;;;;;4972907;28;21002;-65
2023/03/19 05:00:35;;;;;;;15.27;7.35;;;;;;;;;;4969179;28;20015;-68
2023/03/19 05:03:00;;;;;;;15.53;6.83;;;;;;;;;;4972464;28;20085;-67
2023/03/19 05:05:25;;;;;;;18.07;7.50;;;;;;;;;;4972323;28;20102;-68
2023/03/19 05:07:50;;;;;;;18.33;7.07;;;;;;;;;;4972121;28;20030;-64
2023/03/19 05:10:16;;;;;;;17.60;6.97;;;;;;;;;;4974149;28;20019;-65
2023/03/19 05:12:41;;;;;;;14.37;6.40;;;;;;;;;;4976214;28;20462;-65
2023/03/19 05:15:07;;;;;;;17.43;6.87;;;;;;;;;;4969437;28;20465;-66
2023/03/19 05:17:32;;;;;;;14.77;6.43;;;;;;;;;;4972530;28;20026;-65
2023/03/19 05:19:57;;;;;;;15.73;6.83;;;;;;;;;;4970817;28;20414;-65
2023/03/19 05:22:22;;;;;;;15.30;6.70;;;;;;;;;;4972173;28;20466;-65
2023/03/19 05:24:48;;;;;;;13.88;7.07;;;;;;;;;;4972861;28;20046;-67
2023/03/19 05:27:13;;;;;;;15.95;7.07;;;;;;;;;;4974316;28;20027;-66
2023/03/19 05:29:41;;;;;;;14.27;6.80;;;;;;;;;;4974761;28;20030;-66
2023/03/19 05:32:06;;;;;;;15.13;6.65;;;;;;;;;;4979476;28;20538;-65
2023/03/19 05:34:32;;;;;;;14.95;6.30;;;;;;;;;;4979804;28;20059;-65
2023/03/19 05:36:57;;;;;;;15.77;6.60;;;;;;;;;;4983416;28;20026;-65
2023/03/19 05:39:22;;;;;;;16.50;7.50;;;;;;;;;;4973631;28;20154;-66
2023/03/19 05:41:47;;;;;;;15.90;6.90;;;;;;;;;;4972738;28;20035;-66
2023/03/19 05:44:12;;;;;;;16.00;6.63;;;;;;;;;;4974368;28;20051;-64
2023/03/19 05:46:37;;;;;;;13.93;6.63;;;;;;;;;;4978462;28;20031;-66
2023/03/19 05:49:03;;;;;;;15.93;6.82;;;;;;;;;;4983639;28;20034;-66
2023/03/19 05:51:28;;;;;;;14.57;6.28;;;;;;;;;;4983535;28;20509;-67
2023/03/19 05:53:53;;;;;;;14.90;6.60;;;;;;;;;;4982469;28;20025;-66
2023/03/19 05:56:18;;;;;;;15.45;6.85;;;;;;;;;;4981268;28;20474;-66
2023/03/19 05:58:43;;;;;;;14.57;6.30;;;;;;;;;;4981022;28;20019;-68
2023/03/19 06:01:09;;;;;;;15.80;6.80;;;;;;;;;;4981123;28;20034;-67
2023/03/19 06:03:36;;;;;;;15.52;6.90;;;;;;;;;;4980458;28;20015;-67
2023/03/19 06:06:01;;;;;;;;;;;;;;;;;;4973057;28;20581;-64
2023/03/19 06:08:26;;;;;;;12.67;6.67;;;;;;;;;;4967091;28;20085;-66
2023/03/19 06:10:52;;;;;;;12.83;6.00;;;;;;;;;;4969474;28;20042;-66
2023/03/19 06:13:17;;;;;;;15.55;6.82;;;;;;;;;;4971734;28;20408;-66
2023/03/19 06:15:42;;;;;;;14.30;6.50;;;;;;;;;;4971166;28;20038;-68
2023/03/19 06:18:07;;;;;;;16.20;6.72;;;;;;;;;;4969155;28;20057;-65
2023/03/19 06:20:32;;;;;;;16.08;6.65;;;;;;;;;;4970686;28;20058;-65
2023/03/19 06:22:57;;;;;;;14.83;6.90;;;;;;;;;;4972820;28;20049;-65
2023/03/19 06:25:22;;;;;;;15.30;6.83;;;;;;;;;;4970583;28;20105;-68
2023/03/19 06:27:48;;;;;;;13.70;5.95;;;;;;;;;;4971544;28;20026;-65
2023/03/19 06:30:13;;;;;;;13.30;6.00;;;;;;;;;;4968109;28;20494;-67
2023/03/19 06:32:38;;;;;;;15.57;6.27;;;;;;;;;;4968778;28;20594;-66
2023/03/19 06:35:04;;;;;;;13.40;6.03;;;;;;;;;;4970006;28;20415;-64
2023/03/19 06:37:29;;;;;;;14.63;6.25;;;;;;;;;;4971545;28;20030;-65
2023/03/19 06:39:54;;;;;;;14.57;6.30;;;;;;;;;;4971878;28;20027;-66
2023/03/19 06:42:20;;;;;;;14.13;6.05;;;;;;;;;;4971152;28;20031;-66
2023/03/19 06:44:45;;;;;;;13.32;6.38;;;;;;;;;;4969581;28;20058;-66
2023/03/19 06:47:11;;;;;;;14.43;6.70;;;;;;;;;;4970962;28;20015;-67
2023/03/19 06:49:36;;;;;;;16.38;6.22;;;;;;;;;;4970330;28;20800;-65
2023/03/19 06:52:01;;;;;;;14.90;6.30;;;;;;;;;;4969080;28;20533;-67
2023/03/19 06:54:26;;;;;;;13.77;6.30;;;;;;;;;;4970825;28;20049;-67
2023/03/19 06:56:51;;;;;;;14.43;5.93;;;;;;;;;;4969206;28;20031;-66
2023/03/19 06:59:17;;;;;;;14.10;6.03;;;;;;;;;;4972279;28;20058;-66
2023/03/19 07:01:42;;;;;;;14.00;6.30;;;;;;;;;;4970949;28;20038;-66
2023/03/19 07:04:08;;;;;;;12.17;6.13;;;;;;;;;;4970364;28;20097;-67
2023/03/19 07:06:33;;;;;;;14.65;6.35;;;;;;;;;;4968704;28;20030;-65
2023/03/19 07:08:58;;;;;;;12.90;6.20;;;;;;;;;;4970825;28;20043;-64
2023/03/19 07:11:24;;;;;;;13.63;6.23;;;;;;;;;;4971359;28;20114;-66
2023/03/19 07:13:49;;;;;;;13.37;6.30;;;;;;;;;;4975544;28;20026;-67
2023/03/19 07:16:14;;;;;;;12.97;6.53;;;;;;;;;;4983597;28;20027;-65
2023/03/19 07:18:39;;;;;;;13.97;6.00;;;;;;;;;;4970208;28;20015;-68
2023/03/19 07:21:04;;;;;;;14.07;6.53;;;;;;;;;;4971696;28;20102;-65
2023/03/19 07:23:29;;;;;;;12.40;6.32;;;;;;;;;;4969605;28;20034;-63
2023/03/19 07:25:55;;;;;;;13.30;5.90;;;;;;;;;;4969449;28;20042;-64
2023/03/19 07:28:20;;;;;;;14.13;6.40;;;;;;;;;;4970419;28;20030;-65
2023/03/19 07:30:45;;;;;;;12.43;6.15;;;;;;;;;;4965067;28;20081;-67
2023/03/19 07:33:11;;;;;;;13.47;6.37;;;;;;;;;;4970429;28;20027;-66
2023/03/19 07:35:36;;;;;;;15.97;6.23;;;;;;;;;;4970001;28;20034;-66
2023/03/19 07:38:01;;;;;;;12.37;6.57;;;;;;;;;;4965933;28;20490;-65
2023/03/19 07:40:26;;;;;;;14.20;6.38;;;;;;;;;;4966568;28;20037;-69
2023/03/19 07:42:52;;;;;;;12.97;6.60;;;;;;;;;;4971748;28;20055;-67
2023/03/19 07:45:17;;;;;;;16.70;6.53;;;;;;;;;;4970319;28;20030;-64
2023/03/19 07:47:44;;;;;;;12.70;6.18;;;;;;;;;;4970504;28;20146;-66
2023/03/19 07:50:09;;;;;;;12.90;6.25;;;;;;;;;;4970766;28;20026;-66
2023/03/19 07:52:35;;;;;;;14.18;6.75;;;;;;;;;;4974843;28;20418;-69
2023/03/19 07:55:00;;;;;;;13.00;6.38;;;;;;;;;;4974312;28;20034;-66
2023/03/19 07:57:25;;;;;;;13.18;6.00;;;;;;;;;;4974442;28;20045;-65
2023/03/19 07:59:51;;;;;;;13.77;6.70;;;;;;;;;;4975218;28;20108;-66
2023/03/19 08:02:16;;;;;;;16.47;6.50;;;;;;;;;;4974664;28;20029;-65
2023/03/19 08:04:42;;;;;;;13.73;6.68;;;;;;;;;;4974435;28;20034;-65
2023/03/19 08:07:09;;;;;;;13.63;6.00;;;;;;;;;;4976249;28;20486;-67
2023/03/19 08:09:35;;;;;;;13.15;6.32;;;;;;;;;;4977516;28;20046;-65
2023/03/19 08:12:00;;;;;;;15.18;6.45;;;;;;;;;;4981717;28;20027;-66
2023/03/19 08:14:26;;;;;;;15.05;6.68;;;;;;;;;;4984373;28;20038;-65
2023/03/19 08:16:51;;;;;;;12.83;6.73;;;;;;;;;;4975967;28;20100;-66
2023/03/19 08:19:17;;;;;;;13.23;6.40;;;;;;;;;;4972783;28;20029;-67
2023/03/19 08:21:42;;;;;;;14.70;6.78;;;;;;;;;;4972586;28;20027;-67
2023/03/19 08:24:07;;;;;;;17.07;7.00;;;;;;;;;;4972346;28;20031;-67
2023/03/19 08:26:33;;;;;;;13.43;6.00;;;;;;;;;;4967553;28;20482;-66
2023/03/19 08:28:58;;;;;;;14.40;6.70;;;;;;;;;;4967263;28;20076;-64
2023/03/19 08:31:23;;;;;;;13.15;6.07;;;;;;;;;;4973559;28;20053;-66
2023/03/19 08:33:48;;;;;;;13.17;5.70;;;;;;;;;;4974604;28;20060;-67
2023/03/19 08:36:14;;;;;;;13.68;6.30;;;;;;;;;;4973542;28;20031;-67
2023/03/19 08:38:39;;;;;;;13.93;6.60;;;;;;;;;;4974258;28;20058;-66
2023/03/19 08:41:05;;;;;;;14.93;7.10;;;;;;;;;;4957024;28;20023;-67
2023/03/19 08:43:30;;;;;;;14.55;6.30;;;;;;;;;;4955228;28;20469;-68
2023/03/19 08:45:56;;;;;;;12.50;6.38;;;;;;;;;;4955317;28;20035;-66
2023/03/19 08:48:21;;;;;;;14.88;6.88;;;;;;;;;;4956750;28;20059;-69
2023/03/19 08:50:51;;;;;;;13.13;6.83;;;;;;;;;;4969364;28;20059;-67
2023/03/19 08:53:16;;;;;;;13.00;6.50;;;;;;;;;;4974413;28;20019;-67
2023/03/19 08:55:42;;;;;;;13.68;6.45;;;;;;;;;;4973692;28;20109;-66
2023/03/19 08:58:07;;;;;;;13.85;6.93;;;;;;;;;;4973842;28;20102;-66
2023/03/19 09:00:33;;;;;;;12.32;6.18;;;;;;;;;;4974023;28;20373;-67
2023/03/19 09:02:58;;;;;;;12.10;6.03;;;;;;;;;;4975054;28;20035;-66
2023/03/19 09:05:23;;;;;;;13.70;6.27;;;;;;;;;;4973788;28;20038;-66
2023/03/19 09:07:49;;;;;;;13.27;6.30;;;;;;;;;;4973328;28;20031;-68
2023/03/19 09:10:14;;;;;;;18.05;6.50;;;;;;;;;;4974111;28;20081;-68
2023/03/19 09:12:39;;;;;;;13.60;6.20;;;;;;;;;;4974064;28;20038;-67
2023/03/19 09:15:05;;;;;;;13.38;6.70;;;;;;;;;;4973482;28;20061;-67
2023/03/19 09:17:30;;;;;;;15.75;6.97;;;;;;;;;;4974431;28;20507;-68
2023/03/19 09:19:55;;;;;;;13.50;6.68;;;;;;;;;;4973887;28;20426;-69
2023/03/19 09:22:21;;;;;;;14.47;7.03;;;;;;;;;;4972992;28;20065;-66
2023/03/19 09:24:46;;;;;;;14.10;6.73;;;;;;;;;;4973463;28;20589;-66
2023/03/19 09:27:11;;;;;;;15.48;6.93;;;;;;;;;;4973985;28;20610;-65
2023/03/19 09:29:36;;;;;;;12.07;6.28;;;;;;;;;;4975099;28;20027;-67
2023/03/19 09:32:01;;;;;;;16.77;6.85;;;;;;;;;;4973699;28;20023;-67
2023/03/19 09:34:27;;;;;;;15.27;6.65;;;;;;;;;;4973573;28;20502;-66
2023/03/19 09:36:52;;;;;;;15.90;6.90;;;;;;;;;;4973176;28;20038;-66
2023/03/19 09:39:18;;;;;;;14.15;6.40;;;;;;;;;;4973232;28;20961;-67
2023/03/19 09:41:43;;;;;;;14.35;6.70;;;;;;;;;;4988462;28;20048;-66
2023/03/19 09:44:26;;;;;;;13.60;6.47;;;;;;;;;;4973092;28;20166;-66
2023/03/19 09:46:57;;;;;;;14.95;6.97;;;;;;;;;;4973476;28;20031;-67
2023/03/19 09:49:25;;;;;;;14.20;6.93;;;;;;;;;;4973507;28;20083;-66
2023/03/19 09:52:05;;;;;;;15.82;7.00;;;;;;;;;;4973704;28;20097;-67
2023/03/19 09:54:45;;;;;;;14.73;7.00;;;;;;;;;;4972834;28;20027;-68
2023/03/19 09:57:10;;;;;;;12.45;6.90;;;;;;;;;;4973084;28;20023;-68
2023/03/19 09:59:36;;;;;;;14.15;6.55;;;;;;;;;;4973161;28;20147;-67
2023/03/19 10:02:19;;;;;;;13.15;6.85;;;;;;;;;;4972496;28;20038;-68
2023/03/19 10:05:00;;;;;;;15.10;7.30;;;;;;;;;;4972593;28;20069;-68
2023/03/19 10:07:25;;;;;;;13.15;6.55;;;;;;;;;;4973357;28;20023;-67
2023/03/19 10:09:57;;;;;;;14.27;6.93;;;;;;;;;;4972748;28;20081;-67
2023/03/19 10:12:33;;;;;;;14.63;6.70;;;;;;;;;;4962480;28;20063;-67
2023/03/19 10:15:25;;;;;;;14.27;6.93;;;;;;;;;;4952497;28;20082;-67
2023/03/19 10:18:03;;;;;;;14.63;7.00;;;;;;;;;;4952641;28;20054;-66
2023/03/19 10:20:28;;;;;;;;;;;;;;;;;;4954832;28;20487;-66
2023/03/19 10:22:59;;;;;;;15.37;7.03;;;;;;;;;;4960787;28;19980;-67
2023/03/19 10:25:26;;;;;;;14.88;6.85;;;;;;;;;;4977722;28;20019;-68
2023/03/19 10:27:55;;;;;;;13.93;7.45;;;;;;;;;;4973024;28;20031;-67
2023/03/19 10:30:20;;;;;;;15.23;7.43;;;;;;;;;;4976877;28;20034;-68
2023/03/19 10:32:51;;;;;;;16.67;7.33;;;;;;;;;;4981176;28;20022;-68
2023/03/19 10:35:52;;;;;;;13.15;7.20;;;;;;;;;;4977573;28;20442;-67
2023/03/19 10:38:21;;;;;;;18.73;7.63;;;;;;;;;;4913087;29;20020;-64
2023/03/19 10:40:53;;;;;;;14.77;7.30;;;;;;;;;;4958025;28;20077;-69
2023/03/19 10:43:21;;;;;;;13.70;6.78;;;;;;;;;;4953610;28;20035;-66
2023/03/19 10:45:48;;;;;;;14.20;7.03;;;;;;;;;;4953029;28;20034;-66
2023/03/19 10:48:15;;;;;;;16.95;7.65;;;;;;;;;;4954541;28;20023;-66
2023/03/19 10:50:46;;;;;;;14.73;7.20;;;;;;;;;;4957365;28;20023;-67
2023/03/19 10:53:13;;;;;;;15.90;7.25;;;;;;;;;;4960981;28;20019;-67
2023/03/19 10:55:43;;;;;;;14.27;7.03;;;;;;;;;;4983609;28;20143;-66
2023/03/19 10:58:16;;;;;;;17.38;7.90;;;;;;;;;;4985809;28;20023;-66
2023/03/19 11:00:44;;;;;;;12.98;7.25;;;;;;;;;;4974635;28;20022;-69
2023/03/19 11:03:27;;;;;;;16.45;7.45;;;;;;;;;;4973883;28;20061;-66
2023/03/19 11:06:02;;;;;;;14.70;7.20;;;;;;;;;;4972097;28;20019;-68
2023/03/19 11:08:27;;;;;;;12.73;6.60;;;;;;;;;;4972852;28;20026;-66
2023/03/19 11:10:52;;;;;;;14.43;6.70;;;;;;;;;;4972219;28;20033;-66
2023/03/19 11:13:22;;;;;;;14.23;7.07;;;;;;;;;;4969957;28;20041;-67
2023/03/19 11:15:47;;;;;;;14.70;7.32;;;;;;;;;;4972713;28;20106;-67
2023/03/19 11:18:19;;;;;;;14.30;7.50;;;;;;;;;;4972359;28;20160;-67
2023/03/19 11:20:47;;;;;;;14.40;6.70;;;;;;;;;;4972435;28;20098;-67
2023/03/19 11:23:15;;;;;;;15.63;7.50;;;;;;;;;;4971383;28;20030;-68
2023/03/19 11:25:41;;;;;;;14.63;7.28;;;;;;;;;;4971258;28;20110;-69
2023/03/19 11:28:17;;;;;;;14.25;6.82;;;;;;;;;;4971668;28;20431;-65
2023/03/19 11:31:01;;;;;;;13.32;6.72;;;;;;;;;;4972040;28;20158;-67
2023/03/19 11:33:44;;;;;;;13.70;7.10;;;;;;;;;;4971969;28;20027;-66
2023/03/19 11:36:09;;;;;;;;;;;;;;;;;;4970751;28;20026;-66
2023/03/19 11:38:50;;;;;;;15.40;7.00;;;;;;;;;;4971486;28;19906;-68
2023/03/19 11:41:21;;;;;;;13.20;6.95;;;;;;;;;;4958143;28;20410;-68
2023/03/19 11:43:58;;;;;;;12.07;6.68;;;;;;;;;;4963061;28;20035;-66
2023/03/19 11:46:38;;;;;;;13.98;7.30;;;;;;;;;;4960287;28;20118;-69
2023/03/19 11:49:12;;;;;;;13.85;6.60;;;;;;;;;;4957700;28;20542;-64
2023/03/19 11:51:45;;;;;;;15.68;7.65;;;;;;;;;;4971560;28;20530;-65
2023/03/19 11:54:31;;;;;;;14.25;7.13;;;;;;;;;;4971021;28;20389;-66
2023/03/19 11:56:59;;;;;;;14.95;7.43;;;;;;;;;;4968888;28;20041;-67
2023/03/19 11:59:27;;;;;;;14.25;6.88;;;;;;;;;;4964246;28;20105;-69
2023/03/19 12:02:17;;;;;;;13.48;7.30;;;;;;;;;;4971222;28;20031;-67
2023/03/19 12:04:42;;;;;;;14.60;7.57;;;;;;;;;;4962727;28;20037;-67
2023/03/19 12:07:14;;;;;;;13.63;7.30;;;;;;;;;;4970730;28;20027;-66
2023/03/19 12:09:42;;;;;;;13.27;6.53;;;;;;;;;;4966676;28;20042;-69
2023/03/19 12:12:17;;;;;;;13.05;6.68;;;;;;;;;;4968152;28;20023;-68
2023/03/19 12:15:13;;;;;;;13.70;6.88;;;;;;;;;;4967606;28;20598;-67
2023/03/19 12:17:40;;;;;;;15.40;6.85;;;;;;;;;;4962396;28;20030;-65
2023/03/19 12:20:05;;;;;;;;;;;;;;;;;;4966845;28;20031;-68
2023/03/19 12:22:40;;;;;;;12.45;6.50;;;;;;;;;;4967597;28;19925;-67
2023/03/19 12:25:16;;;;;;;13.45;7.15;;;;;;;;;;4964814;28;20034;-69
2023/03/19 12:27:53;;;;;;;15.18;7.30;;;;;;;;;;4966174;28;20032;-67
2023/03/19 12:30:37;;;;;;;15.23;7.13;;;;;;;;;;4964610;28;20027;-66
2023/03/19 12:33:15;;;;;;;13.57;6.85;;;;;;;;;;4966943;28;20034;-65
2023/03/19 12:35:42;;;;;;;14.35;6.72;;;;;;;;;;4961352;28;20037;-67
2023/03/19 12:38:19;;;;;;;13.80;6.93;;;;;;;;;;4968842;28;20050;-64
2023/03/19 12:40:47;;;;;;;15.70;7.75;;;;;;;;;;4966811;28;20118;-66
2023/03/19 12:43:17;;;;;;;12.98;7.30;;;;;;;;;;4967597;28;20027;-65
2023/03/19 12:45:44;;;;;;;14.13;6.70;;;;;;;;;;4968775;28;20023;-68
2023/03/19 12:48:15;;;;;;;13.85;6.90;;;;;;;;;;4970109;28;20026;-65
2023/03/19 12:50:42;;;;;;;14.77;7.28;;;;;;;;;;4968293;28;20095;-67
2023/03/19 12:53:12;;;;;;;13.75;7.40;;;;;;;;;;4965515;28;20030;-66
2023/03/19 12:55:57;;;;;;;14.20;7.03;;;;;;;;;;4967012;28;20054;-66
2023/03/19 12:58:36;;;;;;;14.48;7.18;;;;;;;;;;4966098;28;20061;-67
2023/03/19 13:01:07;;;;;;;16.05;7.50;;;;;;;;;;4983522;28;20081;-65
2023/03/19 13:03:38;;;;;;;15.35;8.00;;;;;;;;;;4969120;28;20034;-67
2023/03/19 13:06:09;;;;;;;13.50;7.07;;;;;;;;;;4970866;28;20022;-67
2023/03/19 13:08:38;;;;;;;14.57;7.22;;;;;;;;;;4967222;28;20082;-67
2023/03/19 13:11:07;;;;;;;13.18;7.13;;;;;;;;;;4964483;28;20521;-66
2023/03/19 13:13:39;;;;;;;14.45;7.72;;;;;;;;;;4972757;28;20565;-68
2023/03/19 13:16:04;;;;;;;;;;;;;;;;;;4972483;28;20041;-67
2023/03/19 13:18:29;;;;;;;12.55;6.70;;;;;;;;;;4972915;28;19941;-65
2023/03/19 13:21:14;;;;;;;12.17;6.67;;;;;;;;;;4973416;28;20089;-67
2023/03/19 13:23:40;;;;;;;13.13;6.90;;;;;;;;;;4973478;28;20454;-67
2023/03/19 13:26:07;;;;;;;14.10;7.18;;;;;;;;;;4973027;28;20026;-67
2023/03/19 13:28:34;;;;;;;16.10;7.50;;;;;;;;;;4973465;28;20033;-64
2023/03/19 13:31:00;;;;;;;14.15;7.38;;;;;;;;;;4969433;28;20026;-68
2023/03/19 13:33:25;;;;;;;13.65;7.50;;;;;;;;;;4970353;28;20015;-65
2023/03/19 13:35:51;;;;;;;14.90;7.10;;;;;;;;;;4973527;28;20046;-66
2023/03/19 13:38:18;;;;;;;12.90;6.97;;;;;;;;;;4974222;28;20450;-66
2023/03/19 13:40:45;;;;;;;13.23;7.03;;;;;;;;;;4978649;28;20058;-67
2023/03/19 13:43:28;;;;;;;13.60;7.07;;;;;;;;;;4979814;28;20023;-67
2023/03/19 13:45:53;;;;;;;12.98;7.03;;;;;;;;;;4987243;28;20071;-65
2023/03/19 13:48:25;;;;;;;14.30;6.95;;;;;;;;;;4985457;28;20034;-68
2023/03/19 13:51:13;;;;;;;12.23;6.88;;;;;;;;;;4956815;28;20552;-66
2023/03/19 13:53:41;;;;;;;15.95;7.40;;;;;;;;;;4971406;28;20043;-66
2023/03/19 13:56:14;;;;;;;12.70;6.78;;;;;;;;;;4973783;28;20015;-67
2023/03/19 13:58:53;;;;;;;14.48;6.70;;;;;;;;;;4973970;28;20015;-68
2023/03/19 14:01:24;;;;;;;15.75;7.63;;;;;;;;;;4973368;28;20011;-66
2023/03/19 14:03:54;;;;;;;12.20;7.22;;;;;;;;;;4973601;28;20097;-67
2023/03/19 14:06:32;;;;;;;13.10;6.85;;;;;;;;;;4972393;28;20031;-68
2023/03/19 14:08:57;;;;;;;15.00;7.57;;;;;;;;;;4972267;28;20494;-66
2023/03/19 14:11:23;;;;;;;17.65;7.75;;;;;;;;;;4973123;28;20034;-66
2023/03/19 14:13:50;;;;;;;16.23;7.65;;;;;;;;;;4972538;28;20443;-67
2023/03/19 14:16:17;;;;;;;15.93;7.82;;;;;;;;;;4972632;28;20033;-66
2023/03/19 14:18:43;;;;;;;16.33;7.57;;;;;;;;;;4973123;28;20041;-67
2023/03/19 14:21:28;;;;;;;14.77;8.25;;;;;;;;;;4972459;28;20020;-67
2023/03/19 14:23:54;;;;;;;13.98;6.80;;;;;;;;;;4972152;28;20034;-66
2023/03/19 14:26:21;;;;;;;15.52;7.03;;;;;;;;;;4971841;28;20102;-66
2023/03/19 14:29:06;;;;;;;14.80;7.13;;;;;;;;;;4972607;28;20033;-67
2023/03/19 14:31:41;;;;;;;16.17;7.43;;;;;;;;;;4971832;28;20186;-66
2023/03/19 14:34:13;;;;;;;16.38;7.75;;;;;;;;;;4972211;28;20110;-66